aviador You're here:

KLPC Decoded Metar

LOMPOC in CA, USA
Report Time2017-05-23 20:22:00
UTC Time2017-05-23 20:39:42
Flight Rules vfr VFR
Wind290° at 06 Gusting to 14 kt
W.Decomp.*RWY 25: 5.4 kt HW 2.5 kt RCW
W.Rank290° ranks 4
Current wind is below 290° avg. (8.4)
Visibility9999 m
Phenomena:N/A
Clouds:Scattered 013 Hf
Expected CloudBase > 2,000 ft AGL from Temp-Dew spread
CeilingNone
Temp17°C (ISA +2)
Dew Point12°C (73% RH)
AAT15.5°C
QNH1016 hPa
Density Alt433 ft
Elevation89 ft
Report Wrong Elevation
Raw Report
KLPC 232022Z AUTO 29006G14KT 10SM SCT013 17/12 A3001 RMK AO2=

Extra information for KLPC:More info

Metar Taf Metar & Taf Last 4 Metars F.Rules Stats Wind Profile Meteogram Temp Stats Airport Information Weather charts Add Link Nearby VenuesMetar ALERT Operation Metar Decoded Social comments

AIRNAV info for KLPC